Time;durP1;ratioP1;P1;durP2;ratioP2;P2;SDS_P1;SDS_P2;PMS_P1;PMS_P2;Temp;Humidity;BMP_temperature;BMP_pressure;BME280_temperature;BME280_humidity;BME280_pressure;Samples;Min_cycle;Max_cycle;Signal;HPM_P1;HPM_P2
2022/12/13 00:02:08;;;;;;;33.73;15.45;;;;;;;;;;1766319;80;21044;-72
2022/12/13 00:04:34;;;;;;;32.55;15.05;;;;;;;;;;1768390;81;21059;-72
2022/12/13 00:07:00;;;;;;;36.38;15.30;;;;;;;;;;1753823;81;22164;-72
2022/12/13 00:09:26;;;;;;;34.92;16.15;;;;;;;;;;1780462;80;21519;-72
2022/12/13 00:11:53;;;;;;;39.13;17.12;;;;;;;;;;1775852;79;21069;-72
2022/12/13 00:14:20;;;;;;;26.17;13.43;;;;;;;;;;1788295;78;21031;-72
2022/12/13 00:16:46;;;;;;;27.20;13.18;;;;;;;;;;1806118;78;21030;-71
2022/12/13 00:19:13;;;;;;;26.90;12.65;;;;;;;;;;1790791;78;21006;-72
2022/12/13 00:21:39;;;;;;;26.20;13.00;;;;;;;;;;1810364;78;21046;-72
2022/12/13 00:24:06;;;;;;;24.50;11.35;;;;;;;;;;1827462;78;21082;-71
2022/12/13 00:26:32;;;;;;;25.15;12.68;;;;;;;;;;1795804;78;20980;-72
2022/12/13 00:28:59;;;;;;;26.65;12.50;;;;;;;;;;1818262;78;21506;-72
2022/12/13 00:31:26;;;;;;;23.38;12.43;;;;;;;;;;1805600;78;21000;-71
2022/12/13 00:33:53;;;;;;;25.20;11.53;;;;;;;;;;1813974;78;21490;-71
2022/12/13 00:36:20;;;;;;;24.87;11.73;;;;;;;;;;1801408;78;21559;-72
2022/12/13 00:38:59;;;;;;;25.00;12.30;;;;;;;;;;1792752;78;21323;-72
2022/12/13 00:41:15;;;;;;;22.00;12.82;;;;;;;;;;1813284;79;21040;-71
2022/12/13 00:43:41;;;;;;;25.77;13.10;;;;;;;;;;1805266;79;21587;-72
2022/12/13 00:46:13;;;;;;;26.12;14.07;;;;;;;;;;1763394;80;21027;-71
2022/12/13 00:48:40;;;;;;;32.48;15.72;;;;;;;;;;1797837;80;21095;-71
2022/12/13 00:51:07;;;;;;;35.08;16.32;;;;;;;;;;1747705;81;21037;-72
2022/12/13 00:53:33;;;;;;;29.85;14.38;;;;;;;;;;1739658;82;21047;-71
2022/12/13 00:56:00;;;;;;;27.30;14.18;;;;;;;;;;1724899;81;21063;-71
2022/12/13 00:58:26;;;;;;;26.93;13.13;;;;;;;;;;1736181;82;21067;-71
2022/12/13 01:00:52;;;;;;;29.25;14.03;;;;;;;;;;1741843;82;21066;-71
2022/12/13 01:03:19;;;;;;;27.62;12.93;;;;;;;;;;1746303;82;21523;-72
2022/12/13 01:05:47;;;;;;;27.20;14.00;;;;;;;;;;1745813;82;21649;-73
2022/12/13 01:08:13;;;;;;;28.70;13.08;;;;;;;;;;1744948;82;21085;-73
2022/12/13 01:10:43;;;;;;;28.90;13.13;;;;;;;;;;1745081;82;21101;-72
2022/12/13 01:13:10;;;;;;;24.80;12.43;;;;;;;;;;1745296;82;21522;-72
2022/12/13 01:15:41;;;;;;;23.80;12.73;;;;;;;;;;1723048;82;21062;-72
2022/12/13 01:18:09;;;;;;;25.02;12.98;;;;;;;;;;1758783;81;22119;-71
2022/12/13 01:20:35;;;;;;;29.92;13.32;;;;;;;;;;1723475;83;21053;-72
2022/12/13 01:23:02;;;;;;;22.55;11.83;;;;;;;;;;1724119;83;21114;-72
2022/12/13 01:25:28;;;;;;;29.63;13.62;;;;;;;;;;1732622;82;21015;-72
2022/12/13 01:27:55;;;;;;;29.42;13.25;;;;;;;;;;1723157;82;21029;-72
2022/12/13 01:30:21;;;;;;;23.55;12.75;;;;;;;;;;1753165;81;21030;-70
2022/12/13 01:32:47;;;;;;;30.02;14.03;;;;;;;;;;1724348;83;21050;-72
2022/12/13 01:35:15;;;;;;;23.38;12.15;;;;;;;;;;1726309;82;21068;-71
2022/12/13 01:37:41;;;;;;;27.35;14.20;;;;;;;;;;1743690;82;21019;-72
2022/12/13 01:40:09;;;;;;;28.85;13.60;;;;;;;;;;1741759;82;21051;-71
2022/12/13 01:42:37;;;;;;;27.62;13.60;;;;;;;;;;1744121;82;21047;-72
2022/12/13 01:45:07;;;;;;;23.83;12.68;;;;;;;;;;1727401;82;21064;-71
2022/12/13 01:47:38;;;;;;;25.68;12.18;;;;;;;;;;1723509;82;21056;-71
2022/12/13 01:50:05;;;;;;;27.75;14.47;;;;;;;;;;1733126;82;21024;-72
2022/12/13 01:52:32;;;;;;;26.82;12.55;;;;;;;;;;1794488;80;21041;-71
2022/12/13 01:55:00;;;;;;;25.37;13.58;;;;;;;;;;1741802;81;21024;-71
2022/12/13 01:57:28;;;;;;;22.80;11.48;;;;;;;;;;1764166;80;21059;-73
2022/12/13 01:59:55;;;;;;;22.82;11.97;;;;;;;;;;1754781;80;21065;-71
2022/12/13 02:05:14;;;;;;;25.52;13.25;;;;;;;;;;1697390;77;77689;-71
2022/12/13 02:07:41;;;;;;;25.00;12.43;;;;;;;;;;1685307;84;21038;-72
2022/12/13 02:10:08;;;;;;;28.40;14.28;;;;;;;;;;1682522;85;21070;-71
2022/12/13 02:12:36;;;;;;;23.83;12.93;;;;;;;;;;1688067;82;79609;-69
2022/12/13 02:15:13;;;;;;;23.70;12.35;;;;;;;;;;1693059;85;20999;-71
2022/12/13 02:17:44;;;;;;;25.20;12.58;;;;;;;;;;1693521;84;21545;-70
2022/12/13 02:20:25;;;;;;;25.45;13.90;;;;;;;;;;1693027;84;21039;-70
2022/12/13 02:22:55;;;;;;;24.65;13.08;;;;;;;;;;1693232;85;21085;-71
2022/12/13 02:25:26;;;;;;;26.57;13.95;;;;;;;;;;1692745;84;21514;-69
2022/12/13 02:27:57;;;;;;;27.27;13.40;;;;;;;;;;1720479;82;21068;-70
2022/12/13 02:30:26;;;;;;;23.73;12.90;;;;;;;;;;1740666;82;21023;-69
2022/12/13 02:32:54;;;;;;;29.67;13.62;;;;;;;;;;1747461;82;21020;-70
2022/12/13 02:35:25;;;;;;;23.15;12.58;;;;;;;;;;1746215;82;21008;-69
2022/12/13 02:37:56;;;;;;;22.82;11.25;;;;;;;;;;1745264;82;20996;-69
2022/12/13 02:40:23;;;;;;;28.73;13.93;;;;;;;;;;1742586;82;21083;-68
2022/12/13 02:43:10;;;;;;;28.87;13.50;;;;;;;;;;1747436;82;21011;-69
2022/12/13 02:45:38;;;;;;;27.80;12.82;;;;;;;;;;1746686;82;21031;-69
2022/12/13 02:48:05;;;;;;;26.75;13.58;;;;;;;;;;1746872;82;21119;-70
2022/12/13 02:50:31;;;;;;;24.67;12.68;;;;;;;;;;1733449;82;21033;-69
2022/12/13 02:52:57;;;;;;;23.87;13.13;;;;;;;;;;1747464;82;21020;-69
2022/12/13 02:55:23;;;;;;;25.70;13.20;;;;;;;;;;1747724;82;21506;-69
2022/12/13 02:57:50;;;;;;;25.62;12.43;;;;;;;;;;1745987;82;21054;-69
2022/12/13 05:54:55;;;;;;;36.90;19.73;;;;;;;;;;1818831;77;22136;-65
2022/12/13 05:57:22;;;;;;;33.70;19.35;;;;;;;;;;1760658;78;21439;-66
2022/12/13 05:59:48;;;;;;;37.23;18.57;;;;;;;;;;1764486;80;21069;-66
2022/12/13 06:02:16;;;;;;;34.80;17.42;;;;;;;;;;1778992;80;21024;-67
2022/12/13 06:04:43;;;;;;;31.50;16.02;;;;;;;;;;1767707;80;21563;-67
2022/12/13 06:07:10;;;;;;;32.60;15.55;;;;;;;;;;1773859;80;21024;-66
2022/12/13 06:09:36;;;;;;;30.25;14.38;;;;;;;;;;1775755;80;21033;-66
2022/12/13 06:12:02;;;;;;;39.27;19.17;;;;;;;;;;1769553;80;21032;-66
2022/12/13 06:14:29;;;;;;;35.92;18.90;;;;;;;;;;1786419;80;21598;-66
2022/12/13 06:16:55;;;;;;;32.13;15.75;;;;;;;;;;1770817;80;21623;-66
2022/12/13 06:19:21;;;;;;;26.07;13.70;;;;;;;;;;1767410;80;21071;-66
2022/12/13 06:21:48;;;;;;;29.72;15.13;;;;;;;;;;1775202;80;21001;-66
2022/12/13 06:24:15;;;;;;;26.93;13.48;;;;;;;;;;1782906;80;21099;-66
2022/12/13 06:26:41;;;;;;;25.57;13.53;;;;;;;;;;1776731;80;21074;-66
2022/12/13 06:29:07;;;;;;;25.48;13.25;;;;;;;;;;1776380;80;21028;-66
2022/12/13 06:31:33;;;;;;;30.72;14.68;;;;;;;;;;1760888;81;21618;-67
2022/12/13 06:34:03;;;;;;;28.10;14.85;;;;;;;;;;1761105;81;21048;-67
2022/12/13 06:36:29;;;;;;;31.10;13.90;;;;;;;;;;1761782;80;21984;-67
2022/12/13 06:38:55;;;;;;;26.73;14.00;;;;;;;;;;1779617;80;20985;-66
2022/12/13 06:41:25;;;;;;;30.32;15.10;;;;;;;;;;1772682;80;21032;-68
2022/12/13 06:43:52;;;;;;;33.58;15.48;;;;;;;;;;1776586;80;21068;-67
2022/12/13 06:46:18;;;;;;;33.55;14.00;;;;;;;;;;1791399;79;21016;-66
2022/12/13 06:48:45;;;;;;;29.23;13.83;;;;;;;;;;1780225;79;21044;-66
2022/12/13 06:51:11;;;;;;;32.15;15.78;;;;;;;;;;1771113;80;21006;-67
2022/12/13 06:53:38;;;;;;;31.27;14.28;;;;;;;;;;1776917;80;21548;-67
2022/12/13 06:56:05;;;;;;;30.72;15.15;;;;;;;;;;1766213;80;21611;-68
2022/12/13 06:58:33;;;;;;;30.72;14.07;;;;;;;;;;1767611;81;21023;-66
2022/12/13 07:01:00;;;;;;;36.95;16.57;;;;;;;;;;1753947;81;21017;-66
2022/12/13 07:03:28;;;;;;;32.28;15.58;;;;;;;;;;1758818;81;21036;-65
2022/12/13 07:05:54;;;;;;;29.50;14.25;;;;;;;;;;1752353;81;20997;-66
2022/12/13 07:08:21;;;;;;;32.15;15.93;;;;;;;;;;1757681;81;21028;-66
2022/12/13 07:10:48;;;;;;;31.57;16.70;;;;;;;;;;1774131;81;21014;-67
2022/12/13 07:13:14;;;;;;;29.98;15.20;;;;;;;;;;1778782;81;21108;-67
2022/12/13 07:27:04;;;;;;;38.75;18.70;;;;;;;;;;1824495;77;22111;-69
2022/12/13 07:29:30;;;;;;;34.33;18.40;;;;;;;;;;1783563;80;22117;-69
2022/12/13 07:31:56;;;;;;;37.40;19.62;;;;;;;;;;1765779;80;21035;-69
2022/12/13 07:34:22;;;;;;;41.95;20.43;;;;;;;;;;1779961;80;21032;-68
2022/12/13 07:36:49;;;;;;;36.88;19.20;;;;;;;;;;1774044;80;21291;-69
2022/12/13 07:39:16;;;;;;;35.48;20.10;;;;;;;;;;1792431;79;20977;-68
2022/12/13 07:41:41;;;;;;;36.75;19.25;;;;;;;;;;1791195;80;21005;-69
2022/12/13 07:44:07;;;;;;;41.88;21.68;;;;;;;;;;1788233;80;21488;-68
2022/12/13 07:46:34;;;;;;;37.10;20.43;;;;;;;;;;1769029;80;21001;-68
2022/12/13 07:49:01;;;;;;;36.95;19.75;;;;;;;;;;1771893;80;20977;-69
2022/12/13 07:51:27;;;;;;;32.85;17.57;;;;;;;;;;1786848;80;20977;-68
2022/12/13 07:53:53;;;;;;;35.35;17.70;;;;;;;;;;1779960;80;21596;-67
2022/12/13 07:56:19;;;;;;;34.58;19.07;;;;;;;;;;1779134;80;21293;-68
2022/12/13 07:58:46;;;;;;;35.15;17.82;;;;;;;;;;1781920;80;21591;-69
2022/12/13 08:01:12;;;;;;;32.93;16.73;;;;;;;;;;1774218;80;21034;-69
2022/12/13 08:03:39;;;;;;;34.33;16.82;;;;;;;;;;1774235;80;21004;-68
2022/12/13 08:06:12;;;;;;;34.80;18.37;;;;;;;;;;1772488;80;21290;-68
2022/12/13 08:08:36;;;;;;;39.35;19.57;;;;;;;;;;1768356;80;21005;-67
2022/12/13 08:11:02;;;;;;;38.25;19.60;;;;;;;;;;1761364;81;21033;-68
2022/12/13 08:13:28;;;;;;;43.02;20.77;;;;;;;;;;1766090;80;21837;-68
2022/12/13 08:15:59;;;;;;;40.33;19.60;;;;;;;;;;1773005;80;21582;-68
2022/12/13 08:18:26;;;;;;;35.05;18.07;;;;;;;;;;1764458;80;21462;-68
2022/12/13 08:20:55;;;;;;;38.67;17.62;;;;;;;;;;1768522;80;21033;-67
2022/12/13 08:23:21;;;;;;;33.05;15.60;;;;;;;;;;1761130;81;21060;-68
2022/12/13 08:25:51;;;;;;;32.80;16.07;;;;;;;;;;1764609;80;21519;-67
2022/12/13 08:28:18;;;;;;;29.80;14.90;;;;;;;;;;1774513;81;20961;-68
2022/12/13 08:30:45;;;;;;;31.60;15.83;;;;;;;;;;1761587;81;21056;-69
2022/12/13 08:33:12;;;;;;;28.92;15.05;;;;;;;;;;1775765;81;21060;-68
2022/12/13 08:35:39;;;;;;;32.28;15.45;;;;;;;;;;1763485;81;21028;-67
2022/12/13 08:38:04;;;;;;;31.07;15.20;;;;;;;;;;1762217;81;21032;-68
2022/12/13 08:40:31;;;;;;;26.48;13.95;;;;;;;;;;1759468;81;21088;-68
2022/12/13 08:42:57;;;;;;;32.13;16.93;;;;;;;;;;1766711;81;21046;-68
2022/12/13 08:45:24;;;;;;;29.55;15.72;;;;;;;;;;1766923;81;21539;-69
2022/12/13 08:47:50;;;;;;;36.53;16.67;;;;;;;;;;1765859;81;20977;-68
2022/12/13 08:50:16;;;;;;;30.52;16.07;;;;;;;;;;1765453;81;21013;-68
2022/12/13 08:52:43;;;;;;;40.98;18.42;;;;;;;;;;1761361;81;21072;-67
2022/12/13 08:55:10;;;;;;;34.95;16.82;;;;;;;;;;1771719;81;20972;-66
2022/12/13 08:57:37;;;;;;;38.08;18.07;;;;;;;;;;1774222;81;21051;-67
2022/12/13 09:00:04;;;;;;;40.52;19.50;;;;;;;;;;1768152;81;21076;-67
2022/12/13 09:02:30;;;;;;;49.30;23.65;;;;;;;;;;1776622;81;21033;-69
2022/12/13 09:04:56;;;;;;;34.63;16.42;;;;;;;;;;1775484;81;21017;-68
2022/12/13 09:07:23;;;;;;;27.40;14.45;;;;;;;;;;1741745;81;21063;-68
2022/12/13 09:09:49;;;;;;;26.82;14.60;;;;;;;;;;1762657;81;21436;-68
2022/12/13 09:12:15;;;;;;;27.55;13.43;;;;;;;;;;1769900;81;21594;-68
2022/12/13 09:14:41;;;;;;;26.90;14.05;;;;;;;;;;1765768;81;21036;-68
2022/12/13 09:17:08;;;;;;;33.38;15.63;;;;;;;;;;1727350;82;21037;-68
2022/12/13 09:19:37;;;;;;;32.05;15.80;;;;;;;;;;1702659;83;21056;-68
2022/12/13 09:22:03;;;;;;;38.85;15.68;;;;;;;;;;1697736;84;21060;-68
2022/12/13 09:24:29;;;;;;;39.67;17.62;;;;;;;;;;1704082;84;21033;-68
2022/12/13 09:26:55;;;;;;;37.05;17.55;;;;;;;;;;1697038;84;21064;-68
2022/12/13 09:29:22;;;;;;;31.80;15.70;;;;;;;;;;1722858;83;21001;-68
2022/12/13 09:31:48;;;;;;;28.15;15.05;;;;;;;;;;1751970;81;21025;-69
2022/12/13 09:34:14;;;;;;;25.43;13.78;;;;;;;;;;1773821;81;21099;-69
2022/12/13 09:36:41;;;;;;;25.52;13.18;;;;;;;;;;1755470;81;20930;-69
2022/12/13 09:39:08;;;;;;;24.87;13.62;;;;;;;;;;1760234;81;20958;-68
2022/12/13 09:41:38;;;;;;;28.17;14.87;;;;;;;;;;1756709;81;21488;-71
2022/12/13 09:44:06;;;;;;;33.10;16.82;;;;;;;;;;1753518;81;21001;-64
2022/12/13 09:46:35;;;;;;;31.57;16.77;;;;;;;;;;1754246;81;21064;-70
2022/12/13 09:49:01;;;;;;;25.90;14.53;;;;;;;;;;1727449;81;21005;-70
2022/12/13 09:51:28;;;;;;;24.35;12.58;;;;;;;;;;1739297;82;20978;-70
2022/12/13 09:53:54;;;;;;;21.07;11.50;;;;;;;;;;1752789;81;21044;-70
2022/12/13 09:56:20;;;;;;;17.17;10.30;;;;;;;;;;1758659;81;21016;-69
2022/12/13 09:58:47;;;;;;;16.40;10.23;;;;;;;;;;1754590;82;21073;-70
2022/12/13 10:01:13;;;;;;;23.07;11.05;;;;;;;;;;1754550;82;21040;-70
2022/12/13 10:03:40;;;;;;;20.17;10.72;;;;;;;;;;1754839;81;21064;-69
2022/12/13 10:06:08;;;;;;;20.17;11.12;;;;;;;;;;1760502;81;20989;-69
2022/12/13 10:08:35;;;;;;;19.80;10.88;;;;;;;;;;1768627;81;21060;-70
2022/12/13 10:11:01;;;;;;;19.95;10.50;;;;;;;;;;1761517;81;21008;-69
2022/12/13 10:13:39;;;;;;;21.52;12.18;;;;;;;;;;1763322;81;21016;-69
2022/12/13 10:16:06;;;;;;;20.45;11.33;;;;;;;;;;1755315;80;21033;-69
2022/12/13 10:18:34;;;;;;;23.70;11.75;;;;;;;;;;1760609;81;21033;-69
2022/12/13 10:21:01;;;;;;;24.15;12.58;;;;;;;;;;1769693;81;20993;-70
2022/12/13 10:23:28;;;;;;;21.85;12.43;;;;;;;;;;1762794;81;20970;-69
2022/12/13 10:25:54;;;;;;;23.50;12.50;;;;;;;;;;1757309;81;21022;-69
2022/12/13 10:28:27;;;;;;;17.67;10.32;;;;;;;;;;1762158;81;20954;-70
2022/12/13 10:30:53;;;;;;;20.48;12.23;;;;;;;;;;1759822;81;21056;-69
2022/12/13 10:33:24;;;;;;;24.70;12.60;;;;;;;;;;1761043;81;21071;-70
2022/12/13 10:36:01;;;;;;;19.25;10.78;;;;;;;;;;1753079;81;20992;-70
2022/12/13 10:38:28;;;;;;;15.88;9.43;;;;;;;;;;1760559;81;21579;-72
2022/12/13 10:40:54;;;;;;;16.65;10.08;;;;;;;;;;1767344;81;20989;-70
2022/12/13 10:43:21;;;;;;;17.67;9.63;;;;;;;;;;1764622;81;21079;-72
2022/12/13 10:45:59;;;;;;;17.48;9.65;;;;;;;;;;1762239;81;21059;-71
2022/12/13 10:48:26;;;;;;;16.52;9.25;;;;;;;;;;1771313;81;21032;-71
2022/12/13 10:51:00;;;;;;;22.37;10.85;;;;;;;;;;1776574;81;21032;-72
2022/12/13 10:53:28;;;;;;;16.25;9.63;;;;;;;;;;1773489;81;21546;-71
2022/12/13 10:55:54;;;;;;;20.15;10.63;;;;;;;;;;1765096;81;20993;-73
2022/12/13 11:09:41;;;;;;;24.87;12.93;;;;;;;;;;1822665;78;28130;-64
2022/12/13 11:12:11;;;;;;;22.65;12.45;;;;;;;;;;1774199;80;20987;-64
2022/12/13 11:14:38;;;;;;;21.68;11.83;;;;;;;;;;1794687;80;21038;-65
2022/12/13 11:17:08;;;;;;;18.23;10.60;;;;;;;;;;1794654;80;20977;-65
2022/12/13 11:19:39;;;;;;;19.42;10.72;;;;;;;;;;1793128;80;20985;-65
2022/12/13 11:22:06;;;;;;;18.70;9.65;;;;;;;;;;1795556;80;21513;-63
2022/12/13 11:24:34;;;;;;;35.98;15.60;;;;;;;;;;1790878;80;21082;-63
2022/12/13 11:27:02;;;;;;;31.15;14.75;;;;;;;;;;1792968;80;21002;-64
2022/12/13 11:29:30;;;;;;;29.92;14.60;;;;;;;;;;1793008;78;21032;-63
2022/12/13 11:32:05;;;;;;;35.58;14.93;;;;;;;;;;1794952;78;21040;-65
2022/12/13 11:34:52;;;;;;;17.55;10.53;;;;;;;;;;1792183;80;21537;-65
2022/12/13 11:37:25;;;;;;;18.40;9.95;;;;;;;;;;1758843;81;22281;-64
2022/12/13 11:39:53;;;;;;;17.98;8.90;;;;;;;;;;1756213;81;21051;-64
2022/12/13 11:42:30;;;;;;;17.42;9.78;;;;;;;;;;1708320;82;21072;-64
2022/12/13 11:44:58;;;;;;;14.40;8.40;;;;;;;;;;1705060;82;21082;-64
2022/12/13 11:47:26;;;;;;;18.85;9.38;;;;;;;;;;1707722;82;21072;-63
2022/12/13 11:49:52;;;;;;;18.42;9.75;;;;;;;;;;1754019;81;21475;-65
2022/12/13 11:52:37;;;;;;;19.45;10.05;;;;;;;;;;1760434;81;20980;-65
2022/12/13 11:55:08;;;;;;;16.45;9.28;;;;;;;;;;1759654;81;21015;-64
2022/12/13 11:57:42;;;;;;;16.77;9.48;;;;;;;;;;1758982;80;21015;-64
2022/12/13 12:00:10;;;;;;;18.67;10.20;;;;;;;;;;1751048;80;21680;-64
2022/12/13 12:02:39;;;;;;;17.98;9.50;;;;;;;;;;1762326;80;21022;-64
2022/12/13 12:05:07;;;;;;;16.87;9.15;;;;;;;;;;1715324;83;21017;-63
2022/12/13 12:07:50;;;;;;;15.05;9.35;;;;;;;;;;1714225;82;21080;-65
2022/12/13 12:10:24;;;;;;;16.23;9.27;;;;;;;;;;1716058;83;21077;-65
2022/12/13 12:12:53;;;;;;;16.97;10.15;;;;;;;;;;1715748;82;21056;-64
2022/12/13 12:15:21;;;;;;;20.12;10.48;;;;;;;;;;1715598;83;21075;-65
2022/12/13 12:17:47;;;;;;;17.92;10.23;;;;;;;;;;1692219;84;21068;-65
2022/12/13 12:20:14;;;;;;;16.15;8.88;;;;;;;;;;1732526;82;21024;-65
2022/12/13 12:22:44;;;;;;;26.90;11.88;;;;;;;;;;1698667;84;21091;-65
2022/12/13 12:25:22;;;;;;;29.70;13.45;;;;;;;;;;1705020;84;21551;-64
2022/12/13 12:28:02;;;;;;;24.43;11.95;;;;;;;;;;1719231;81;21088;-63
2022/12/13 12:30:39;;;;;;;22.32;11.03;;;;;;;;;;1689398;84;21041;-65
2022/12/13 12:33:07;;;;;;;29.27;13.35;;;;;;;;;;1690710;84;21040;-63
2022/12/13 12:35:53;;;;;;;26.15;13.85;;;;;;;;;;1715234;82;21007;-65
2022/12/13 12:38:24;;;;;;;24.02;11.05;;;;;;;;;;1726227;81;21600;-65
2022/12/13 12:40:58;;;;;;;22.37;11.12;;;;;;;;;;1738933;82;21468;-64
2022/12/13 12:43:40;;;;;;;17.85;11.38;;;;;;;;;;1722959;81;21019;-65
2022/12/13 12:46:20;;;;;;;26.82;13.75;;;;;;;;;;1725064;82;21034;-64
2022/12/13 12:48:53;;;;;;;18.70;10.68;;;;;;;;;;1729191;81;21073;-65
2022/12/13 12:51:20;;;;;;;20.88;11.80;;;;;;;;;;1734728;82;21066;-64
2022/12/13 12:54:06;;;;;;;21.73;11.73;;;;;;;;;;1737596;81;20990;-65
2022/12/13 12:56:43;;;;;;;19.02;9.93;;;;;;;;;;1736085;81;21020;-65
2022/12/13 12:59:23;;;;;;;17.73;10.03;;;;;;;;;;1686666;83;21152;-66
2022/12/13 13:01:54;;;;;;;17.52;9.90;;;;;;;;;;1715788;83;21085;-64
2022/12/13 13:04:22;;;;;;;18.27;9.30;;;;;;;;;;1715543;83;21080;-64
2022/12/13 13:06:56;;;;;;;20.32;11.38;;;;;;;;;;1690043;84;21122;-64
2022/12/13 13:09:23;;;;;;;22.48;11.28;;;;;;;;;;1749436;80;21003;-64
2022/12/13 13:11:50;;;;;;;22.05;12.00;;;;;;;;;;1765728;80;21109;-63
2022/12/13 13:14:30;;;;;;;19.02;10.05;;;;;;;;;;1760463;80;21085;-64
2022/12/13 13:17:00;;;;;;;18.17;9.35;;;;;;;;;;1723267;82;21703;-65
2022/12/13 13:19:32;;;;;;;23.92;11.40;;;;;;;;;;1693218;83;21066;-64
2022/12/13 13:21:58;;;;;;;28.00;12.37;;;;;;;;;;1722840;83;21048;-65
2022/12/13 13:24:26;;;;;;;17.90;9.75;;;;;;;;;;1771742;80;21026;-64
2022/12/13 13:27:12;;;;;;;17.57;10.20;;;;;;;;;;1717452;83;21080;-64
2022/12/13 13:29:39;;;;;;;19.30;10.80;;;;;;;;;;1720644;83;21031;-64
2022/12/13 13:32:12;;;;;;;19.73;10.35;;;;;;;;;;1714518;83;21087;-64
2022/12/13 13:34:44;;;;;;;17.90;9.83;;;;;;;;;;1715075;83;21079;-63
2022/12/13 13:37:22;;;;;;;22.40;11.73;;;;;;;;;;1720178;83;21076;-64
2022/12/13 13:40:01;;;;;;;15.50;9.45;;;;;;;;;;1717973;83;21092;-65
2022/12/13 13:42:30;;;;;;;20.57;11.38;;;;;;;;;;1749297;81;21057;-64
2022/12/13 13:45:04;;;;;;;21.10;11.53;;;;;;;;;;1751254;80;21010;-65
2022/12/13 13:47:32;;;;;;;18.27;10.38;;;;;;;;;;1733424;81;20993;-64
2022/12/13 13:50:05;;;;;;;19.00;9.60;;;;;;;;;;1745856;80;21054;-64
2022/12/13 13:52:31;;;;;;;;;;;;;;;;;;1739370;82;21022;-65
2022/12/13 13:55:02;;;;;;;20.72;12.73;;;;;;;;;;1713794;83;20465;-64
2022/12/13 13:57:47;;;;;;;22.98;13.48;;;;;;;;;;1743317;81;20989;-65
2022/12/13 14:00:18;;;;;;;22.93;12.33;;;;;;;;;;1747663;81;21068;-66
2022/12/13 14:02:54;;;;;;;19.67;11.08;;;;;;;;;;1751123;80;21022;-64
2022/12/13 14:05:28;;;;;;;21.80;11.70;;;;;;;;;;1743624;81;21108;-64
2022/12/13 14:08:12;;;;;;;22.73;12.90;;;;;;;;;;1746977;81;21053;-65
2022/12/13 14:10:52;;;;;;;20.60;10.10;;;;;;;;;;1701246;83;21036;-64
2022/12/13 14:13:21;;;;;;;18.95;10.80;;;;;;;;;;1735736;81;21565;-64
2022/12/13 14:16:05;;;;;;;19.42;10.18;;;;;;;;;;1748122;81;22139;-64
2022/12/13 14:18:52;;;;;;;17.48;10.43;;;;;;;;;;1709657;83;21080;-64
2022/12/13 14:21:39;;;;;;;18.25;9.65;;;;;;;;;;1706945;83;21567;-64
2022/12/13 14:24:07;;;;;;;19.20;10.75;;;;;;;;;;1706960;83;21032;-65
2022/12/13 14:26:54;;;;;;;22.93;12.60;;;;;;;;;;1706708;83;21684;-64
2022/12/13 14:29:25;;;;;;;21.00;11.30;;;;;;;;;;1710463;83;21009;-64
2022/12/13 14:31:51;;;;;;;26.93;12.18;;;;;;;;;;1705855;83;21056;-65
2022/12/13 14:34:27;;;;;;;21.27;11.83;;;;;;;;;;1705103;83;21153;-68
2022/12/13 14:36:58;;;;;;;25.68;12.73;;;;;;;;;;1703574;83;21025;-63
2022/12/13 14:39:24;;;;;;;32.50;14.50;;;;;;;;;;1706749;83;21009;-64
2022/12/13 14:41:52;;;;;;;32.75;15.50;;;;;;;;;;1704029;83;21532;-63
2022/12/13 14:44:19;;;;;;;29.67;14.98;;;;;;;;;;1713063;83;21800;-64
2022/12/13 14:46:50;;;;;;;26.07;11.95;;;;;;;;;;1718590;83;21587;-64
2022/12/13 14:49:17;;;;;;;24.05;12.30;;;;;;;;;;1718449;83;21013;-65
2022/12/13 14:51:44;;;;;;;22.90;12.40;;;;;;;;;;1695686;83;21064;-64
2022/12/13 14:54:12;;;;;;;19.12;11.30;;;;;;;;;;1732444;83;20989;-64
2022/12/13 14:56:40;;;;;;;25.95;12.95;;;;;;;;;;1717488;83;21599;-64
2022/12/13 14:59:08;;;;;;;22.48;11.78;;;;;;;;;;1705855;83;21587;-65
2022/12/13 15:01:34;;;;;;;21.20;12.07;;;;;;;;;;1703515;83;21072;-64
2022/12/13 15:04:19;;;;;;;22.17;11.95;;;;;;;;;;1720084;83;21008;-65
2022/12/13 15:06:45;;;;;;;20.97;11.65;;;;;;;;;;1729610;83;21052;-65
2022/12/13 15:09:12;;;;;;;23.22;11.38;;;;;;;;;;1727499;83;21408;-65
2022/12/13 15:11:40;;;;;;;24.25;12.37;;;;;;;;;;1708201;83;21019;-65
2022/12/13 15:14:08;;;;;;;20.08;11.12;;;;;;;;;;1696720;83;20997;-64
2022/12/13 15:29:56;;;;;;;24.12;13.03;;;;;;;;;;1774874;80;29364;-73
2022/12/13 15:32:23;;;;;;;21.77;12.50;;;;;;;;;;1751362;81;21020;-73
2022/12/13 15:34:50;;;;;;;23.40;12.00;;;;;;;;;;1755358;81;20980;-73
2022/12/13 15:37:20;;;;;;;16.77;10.55;;;;;;;;;;1759694;81;21603;-73
2022/12/13 15:39:47;;;;;;;20.10;11.78;;;;;;;;;;1740532;81;21126;-74
2022/12/13 15:42:18;;;;;;;18.80;11.48;;;;;;;;;;1743284;81;21079;-73
2022/12/13 15:44:46;;;;;;;19.20;12.33;;;;;;;;;;1738527;81;21087;-73
2022/12/13 15:47:13;;;;;;;20.90;11.22;;;;;;;;;;1787044;80;21064;-74
2022/12/13 15:49:39;;;;;;;23.35;12.10;;;;;;;;;;1775275;80;21068;-73
2022/12/13 15:52:07;;;;;;;19.37;11.20;;;;;;;;;;1764193;80;21022;-73
2022/12/13 15:54:34;;;;;;;20.65;10.95;;;;;;;;;;1765161;80;21058;-73
2022/12/13 15:57:01;;;;;;;19.57;10.60;;;;;;;;;;1757249;80;21447;-74
2022/12/13 15:59:30;;;;;;;21.27;11.33;;;;;;;;;;1787146;80;21101;-72
2022/12/13 16:01:56;;;;;;;19.32;10.68;;;;;;;;;;1784010;80;21092;-73
2022/12/13 16:04:22;;;;;;;26.10;11.78;;;;;;;;;;1786504;80;20937;-73
2022/12/13 16:06:51;;;;;;;18.95;10.35;;;;;;;;;;1786505;80;21115;-73
2022/12/13 16:09:18;;;;;;;23.15;11.28;;;;;;;;;;1766033;80;21515;-73
2022/12/13 16:11:49;;;;;;;19.55;10.50;;;;;;;;;;1780027;80;21040;-72
2022/12/13 16:14:25;;;;;;;15.90;9.73;;;;;;;;;;1780746;80;21020;-72
2022/12/13 16:16:52;;;;;;;23.67;10.82;;;;;;;;;;1786856;80;21063;-72
2022/12/13 16:19:18;;;;;;;17.65;9.35;;;;;;;;;;1776894;80;21073;-72
2022/12/13 16:21:44;;;;;;;15.78;9.13;;;;;;;;;;1752201;80;21062;-74
2022/12/13 16:24:10;;;;;;;15.98;9.33;;;;;;;;;;1751941;82;21067;-73
2022/12/13 16:26:36;;;;;;;16.00;9.53;;;;;;;;;;1721005;83;21042;-73
2022/12/13 16:29:04;;;;;;;16.52;8.90;;;;;;;;;;1755474;81;21029;-70
2022/12/13 16:31:34;;;;;;;13.85;8.25;;;;;;;;;;1749356;80;21097;-72
2022/12/13 16:33:59;;;;;;;14.38;7.87;;;;;;;;;;1746028;82;21510;-73
2022/12/13 16:36:25;;;;;;;17.57;9.08;;;;;;;;;;1723911;83;21062;-74
2022/12/13 16:38:50;;;;;;;15.38;8.78;;;;;;;;;;1719633;83;21041;-73
2022/12/13 16:41:17;;;;;;;24.75;11.97;;;;;;;;;;1707773;84;21030;-72
2022/12/13 16:43:53;;;;;;;17.73;9.25;;;;;;;;;;1710567;82;21019;-74
2022/12/13 16:46:20;;;;;;;14.15;7.78;;;;;;;;;;1715433;83;21065;-73
2022/12/13 16:48:46;;;;;;;15.75;8.20;;;;;;;;;;1753672;82;21006;-73
2022/12/13 16:51:12;;;;;;;15.45;8.75;;;;;;;;;;1739682;82;21626;-73
2022/12/13 16:53:39;;;;;;;17.32;9.05;;;;;;;;;;1748175;80;21057;-72
2022/12/13 16:56:10;;;;;;;13.22;8.40;;;;;;;;;;1747641;82;21014;-72
2022/12/13 16:58:33;;;;;;;16.73;8.83;;;;;;;;;;1743509;82;21051;-75
2022/12/13 17:01:00;;;;;;;16.70;9.35;;;;;;;;;;1744409;82;21040;-73
2022/12/13 17:03:26;;;;;;;15.50;8.55;;;;;;;;;;1749838;82;21004;-74
2022/12/13 17:05:52;;;;;;;17.07;8.78;;;;;;;;;;1747015;82;21039;-75
2022/12/13 17:08:18;;;;;;;16.15;8.70;;;;;;;;;;1710025;84;21154;-77
2022/12/13 17:10:46;;;;;;;16.50;8.85;;;;;;;;;;1730717;83;21082;-73
2022/12/13 17:13:12;;;;;;;16.93;8.65;;;;;;;;;;1730691;83;21552;-74
2022/12/13 17:15:39;;;;;;;17.37;8.53;;;;;;;;;;1728852;83;22259;-73
2022/12/13 17:18:05;;;;;;;15.43;8.23;;;;;;;;;;1730845;83;21703;-74
2022/12/13 17:20:31;;;;;;;15.28;8.55;;;;;;;;;;1723148;83;21537;-74
2022/12/13 17:22:58;;;;;;;15.60;8.38;;;;;;;;;;1730861;83;21094;-75
2022/12/13 17:25:24;;;;;;;13.78;7.92;;;;;;;;;;1730812;83;21034;-74
2022/12/13 17:27:50;;;;;;;12.73;6.83;;;;;;;;;;1730731;83;21066;-73
2022/12/13 17:30:16;;;;;;;13.70;7.30;;;;;;;;;;1694909;81;21081;-70
2022/12/13 17:32:43;;;;;;;12.18;6.92;;;;;;;;;;1708841;84;21066;-74
2022/12/13 17:35:10;;;;;;;12.28;6.28;;;;;;;;;;1706911;84;21048;-79
2022/12/13 17:37:36;;;;;;;14.03;6.30;;;;;;;;;;1688354;84;21051;-80
2022/12/13 17:40:05;;;;;;;15.80;7.70;;;;;;;;;;1697851;84;21077;-81
2022/12/13 17:42:32;;;;;;;11.60;6.03;;;;;;;;;;1699162;84;21074;-81
2022/12/13 17:44:58;;;;;;;11.95;5.62;;;;;;;;;;1691098;84;21066;-84
2022/12/13 17:47:25;;;;;;;7.92;5.47;;;;;;;;;;1699776;84;21177;-82
2022/12/13 17:49:51;;;;;;;10.35;6.30;;;;;;;;;;1697798;84;21050;-80
2022/12/13 17:52:17;;;;;;;16.57;6.20;;;;;;;;;;1699978;84;21029;-80
2022/12/13 17:54:44;;;;;;;12.80;6.67;;;;;;;;;;1685527;84;21086;-81
2022/12/13 17:57:10;;;;;;;12.35;5.60;;;;;;;;;;1699135;83;22058;-82
2022/12/13 17:59:39;;;;;;;11.48;6.95;;;;;;;;;;1705503;83;21112;-81
2022/12/13 18:02:07;;;;;;;11.12;6.42;;;;;;;;;;1681414;85;21048;-82
2022/12/13 18:04:35;;;;;;;10.95;6.47;;;;;;;;;;1710032;84;21127;-84